createdAt,value
2023-02-09T00:02:13.919Z,98524.22
2023-02-09T00:04:40.450Z,98526.78
2023-02-09T00:07:06.994Z,98515.03
2023-02-09T00:09:33.624Z,98516.97
2023-02-09T00:12:18.835Z,98518.78
2023-02-09T00:14:45.276Z,98506.28
2023-02-09T00:17:11.765Z,98505.13
2023-02-09T00:19:38.205Z,98500.22
2023-02-09T00:22:04.764Z,98502.84
2023-02-09T00:24:31.272Z,98507.63
2023-02-09T00:26:57.799Z,98502.41
2023-02-09T00:29:24.451Z,98502.44
2023-02-09T00:31:51.865Z,98495.72
2023-02-09T00:34:19.682Z,98502.34
2023-02-09T00:36:46.462Z,98492.09
2023-02-09T00:39:13.149Z,98493.06
2023-02-09T00:41:58.224Z,98495.63
2023-02-09T00:44:25.876Z,98483.78
2023-02-09T00:46:52.561Z,98488.97
2023-02-09T00:49:19.849Z,98490.63
2023-02-09T00:51:46.660Z,98495.50
2023-02-09T00:54:14.279Z,98492.16
2023-02-09T00:56:41.046Z,98482.94
2023-02-09T00:59:07.966Z,98486.81
2023-02-09T01:01:35.780Z,98489.34
2023-02-09T01:04:05.397Z,98487.53
2023-02-09T01:06:32.303Z,98490.91
2023-02-09T01:08:59.006Z,98488.38
2023-02-09T01:11:31.689Z,98485.03
2023-02-09T01:13:59.492Z,98485.31
2023-02-09T01:16:28.740Z,98485.56
2023-02-09T01:18:56.093Z,98488.81
2023-02-09T01:21:23.523Z,98479.56
2023-02-09T01:23:50.299Z,98482.28
2023-02-09T01:26:18.116Z,98479.28
2023-02-09T01:28:44.838Z,98473.59
2023-02-09T01:31:27.815Z,98466.13
2023-02-09T01:33:55.950Z,98468.84
2023-02-09T01:36:22.920Z,98470.56
2023-02-09T01:38:50.825Z,98465.28
2023-02-09T01:41:17.713Z,98468.59
2023-02-09T01:43:48.336Z,98464.59
2023-02-09T01:46:14.799Z,98461.19
2023-02-09T01:48:41.677Z,98462.88
2023-02-09T01:51:08.449Z,98460.19
2023-02-09T01:53:34.945Z,98458.41
2023-02-09T01:56:10.915Z,98447.19
2023-02-09T01:58:37.906Z,98434.44
2023-02-09T02:01:05.519Z,98443.88
2023-02-09T02:03:32.574Z,98433.03
2023-02-09T02:06:06.026Z,98441.53
2023-02-09T02:08:38.269Z,98439.97
2023-02-09T02:11:05.560Z,98435.69
2023-02-09T02:13:32.001Z,98438.88
2023-02-09T02:16:27.549Z,98440.97
2023-02-09T02:19:17.282Z,98435.09
2023-02-09T02:22:04.370Z,98429.97
2023-02-09T02:25:05.455Z,98434.03
2023-02-09T02:27:46.811Z,98429.13
2023-02-09T02:30:25.473Z,98426.63
2023-02-09T02:33:19.805Z,98416.50
2023-02-09T02:35:54.178Z,98420.13
2023-02-09T02:38:38.483Z,98423.66
2023-02-09T02:41:16.399Z,98422.81
2023-02-09T02:44:04.517Z,98424.44
2023-02-09T02:46:39.643Z,98418.38
2023-02-09T02:49:32.386Z,98416.94
2023-02-09T02:52:03.791Z,98417.69
2023-02-09T02:54:38.424Z,98421.22
2023-02-09T02:57:11.589Z,98422.09
2023-02-09T02:59:47.027Z,98422.41
2023-02-09T03:02:23.812Z,98419.63
2023-02-09T03:04:54.385Z,98424.59
2023-02-09T03:07:20.952Z,98416.09
2023-02-09T03:09:52.188Z,98407.50
2023-02-09T03:12:31.177Z,98404.00
2023-02-09T03:15:06.670Z,98406.50
2023-02-09T03:17:45.215Z,98410.03
2023-02-09T03:20:25.778Z,98403.44
2023-02-09T03:22:58.208Z,98408.72
2023-02-09T03:25:35.132Z,98401.31
2023-02-09T03:28:19.369Z,98406.44
2023-02-09T03:30:49.714Z,98404.91
2023-02-09T03:33:20.981Z,98408.22
2023-02-09T03:35:51.791Z,98404.69
2023-02-09T03:38:18.355Z,98413.13
2023-02-09T03:40:46.189Z,98400.22
2023-02-09T03:43:13.416Z,98411.28
2023-02-09T03:45:40.075Z,98410.69
2023-02-09T03:48:07.032Z,98413.13
2023-02-09T03:50:35.658Z,98407.31
2023-02-09T03:53:06.510Z,98409.06
2023-02-09T03:55:34.184Z,98408.13
2023-02-09T03:58:00.727Z,98407.94
2023-02-09T04:00:30.526Z,98409.88
2023-02-09T04:02:59.330Z,98403.91
2023-02-09T04:05:25.852Z,98395.75
2023-02-09T04:07:52.353Z,98409.13
2023-02-09T04:10:19.135Z,98418.50
2023-02-09T04:12:45.604Z,98410.97
2023-02-09T04:15:12.185Z,98417.34
2023-02-09T04:17:38.697Z,98412.88
2023-02-09T04:20:05.614Z,98417.25
2023-02-09T04:22:32.120Z,98429.97
2023-02-09T04:24:58.513Z,98423.38
2023-02-09T04:27:24.993Z,98426.03
2023-02-09T04:29:51.461Z,98427.00
2023-02-09T04:32:17.988Z,98430.47
2023-02-09T04:34:44.442Z,98424.47
2023-02-09T04:37:11.057Z,98424.38
2023-02-09T04:39:37.526Z,98424.44
2023-02-09T04:42:04.011Z,98426.00
2023-02-09T04:44:30.681Z,98419.13
2023-02-09T04:46:57.192Z,98418.47
2023-02-09T04:49:23.620Z,98415.00
2023-02-09T04:51:51.237Z,98420.13
2023-02-09T04:54:17.803Z,98423.78
2023-02-09T04:56:44.207Z,98418.59
2023-02-09T04:59:29.329Z,98413.38
2023-02-09T05:01:55.843Z,98420.81
2023-02-09T05:04:22.250Z,98414.81
2023-02-09T05:06:48.814Z,98417.38
2023-02-09T05:09:15.264Z,98417.59
2023-02-09T05:11:41.812Z,98408.22
2023-02-09T05:14:08.253Z,98410.00
2023-02-09T05:16:37.606Z,98411.72
2023-02-09T05:19:05.235Z,98420.94
2023-02-09T05:21:31.685Z,98410.13
2023-02-09T05:23:58.072Z,98410.81
2023-02-09T05:26:24.513Z,98412.41
2023-02-09T05:28:50.952Z,98419.28
2023-02-09T05:31:18.232Z,98413.41
2023-02-09T05:33:44.874Z,98413.41
2023-02-09T05:36:12.841Z,98435.53
2023-02-09T05:38:40.125Z,98432.91
2023-02-09T05:41:11.940Z,98418.44
2023-02-09T05:43:38.375Z,98431.16
2023-02-09T05:46:07.773Z,98424.34
2023-02-09T05:48:34.652Z,98437.78
2023-02-09T05:51:01.369Z,98421.59
2023-02-09T05:53:27.787Z,98431.81
2023-02-09T05:55:54.276Z,98434.47
2023-02-09T05:58:20.672Z,98437.00
2023-02-09T06:00:47.381Z,98437.09
2023-02-09T06:03:14.058Z,98438.81
2023-02-09T06:05:40.646Z,98439.69
2023-02-09T06:08:07.051Z,98432.13
2023-02-09T06:10:34.005Z,98440.66
2023-02-09T06:13:00.406Z,98445.03
2023-02-09T06:15:26.833Z,98446.88
2023-02-09T06:17:53.335Z,98440.97
2023-02-09T06:20:19.753Z,98447.66
2023-02-09T06:22:46.168Z,98446.06
2023-02-09T06:25:12.654Z,98446.88
2023-02-09T06:27:39.200Z,98447.94
2023-02-09T06:30:06.832Z,98447.34
2023-02-09T06:32:33.260Z,98448.84
2023-02-09T06:34:59.803Z,98446.19
2023-02-09T06:37:26.336Z,98444.53
2023-02-09T06:39:52.926Z,98453.16
2023-02-09T06:42:19.370Z,98452.97
2023-02-09T06:44:45.808Z,98448.75
2023-02-09T06:47:12.312Z,98448.81
2023-02-09T06:49:38.795Z,98441.91
2023-02-09T06:52:05.471Z,98440.22
2023-02-09T06:54:32.006Z,98446.00
2023-02-09T06:56:58.435Z,98445.97
2023-02-09T06:59:25.117Z,98448.50
2023-02-09T07:01:54.633Z,98444.91
2023-02-09T07:04:21.626Z,98438.97
2023-02-09T07:06:48.166Z,98426.03
2023-02-09T07:09:14.593Z,98427.25
2023-02-09T07:11:41.031Z,98422.38
2023-02-09T07:14:07.522Z,98405.19
2023-02-09T07:16:34.058Z,98404.69
2023-02-09T07:19:01.079Z,98402.09
2023-02-09T07:21:27.520Z,98397.44
2023-02-09T07:23:53.953Z,98382.06
2023-02-09T07:26:20.433Z,98395.34
2023-02-09T07:28:47.076Z,98390.13
2023-02-09T07:31:15.764Z,98390.09
2023-02-09T07:33:43.069Z,98392.84
2023-02-09T07:36:11.986Z,98399.56
2023-02-09T07:38:40.705Z,98394.72
2023-02-09T07:41:12.720Z,98397.72
2023-02-09T07:43:40.162Z,98403.97
2023-02-09T07:46:07.923Z,98405.84
2023-02-09T07:48:35.714Z,98405.78
2023-02-09T07:51:04.573Z,98397.94
2023-02-09T07:53:31.155Z,98406.28
2023-02-09T07:55:58.152Z,98415.22
2023-02-09T07:58:24.733Z,98420.88
2023-02-09T08:00:51.666Z,98418.41
2023-02-09T08:03:20.827Z,98427.56
2023-02-09T08:06:19.676Z,98422.69
2023-02-09T08:08:47.934Z,98412.28
2023-02-09T08:11:16.701Z,98422.50
2023-02-09T08:13:44.569Z,98419.38
2023-02-09T08:16:15.754Z,98421.78
2023-02-09T08:18:50.040Z,98436.56
2023-02-09T08:21:17.710Z,98439.09
2023-02-09T08:23:46.484Z,98431.28
2023-02-09T08:26:14.001Z,98423.00
2023-02-09T08:28:45.542Z,98424.06
2023-02-09T08:31:18.743Z,98427.63
2023-02-09T08:33:47.473Z,98417.56
2023-02-09T08:36:16.345Z,98429.94
2023-02-09T08:38:42.948Z,98414.94
2023-02-09T08:41:12.269Z,98423.16
2023-02-09T08:43:39.346Z,98430.41
2023-02-09T08:46:12.715Z,98427.19
2023-02-09T08:48:42.324Z,98428.56
2023-02-09T08:51:10.648Z,98411.75
2023-02-09T08:53:37.362Z,98421.19
2023-02-09T08:56:04.116Z,98417.34
2023-02-09T08:58:32.041Z,98416.53
2023-02-09T09:00:59.927Z,98412.69
2023-02-09T09:03:31.414Z,98408.28
2023-02-09T09:06:00.225Z,98400.28
2023-02-09T09:08:27.483Z,98408.56
2023-02-09T09:10:58.980Z,98409.88
2023-02-09T09:13:25.985Z,98409.69
2023-02-09T09:15:55.437Z,98413.47
2023-02-09T09:18:22.948Z,98411.69
2023-02-09T09:20:49.624Z,98411.22
2023-02-09T09:23:16.315Z,98410.59
2023-02-09T09:25:43.308Z,98400.47
2023-02-09T09:28:10.438Z,98403.44
2023-02-09T09:30:36.942Z,98401.00
2023-02-09T09:33:03.661Z,98395.59
2023-02-09T09:35:31.028Z,98403.34
2023-02-09T09:37:58.527Z,98409.69
2023-02-09T09:40:28.591Z,98401.56
2023-02-09T09:42:58.145Z,98404.94
2023-02-09T09:45:28.301Z,98402.28
2023-02-09T09:47:56.525Z,98402.38
2023-02-09T09:50:29.494Z,98403.22
2023-02-09T09:53:09.256Z,98392.19
2023-02-09T09:55:38.451Z,98390.06
2023-02-09T09:58:07.248Z,98389.09
2023-02-09T10:00:40.240Z,98396.03
2023-02-09T10:03:19.359Z,98394.66
2023-02-09T10:06:12.259Z,98389.25
2023-02-09T10:09:07.946Z,98391.94
2023-02-09T10:11:49.084Z,98384.28
2023-02-09T10:14:16.116Z,98394.16
2023-02-09T10:16:44.023Z,98397.31
2023-02-09T10:19:26.073Z,98388.03
2023-02-09T10:21:54.337Z,98393.78
2023-02-09T10:24:24.031Z,98389.69
2023-02-09T10:27:34.048Z,98388.28
2023-02-09T10:30:20.669Z,98385.72
2023-02-09T10:32:47.778Z,98373.97
2023-02-09T10:35:27.187Z,98372.50
2023-02-09T10:38:02.376Z,98361.19
2023-02-09T10:40:32.616Z,98373.16
2023-02-09T10:43:05.811Z,98359.16
2023-02-09T10:45:39.504Z,98358.00
2023-02-09T10:48:18.840Z,98356.56
2023-02-09T10:51:05.725Z,98351.03
2023-02-09T10:53:41.445Z,98354.97
2023-02-09T10:56:23.338Z,98348.75
2023-02-09T10:58:53.526Z,98353.19
2023-02-09T11:01:24.443Z,98344.56
2023-02-09T11:04:06.790Z,98348.38
2023-02-09T11:06:51.017Z,98348.47
2023-02-09T11:09:20.925Z,98340.09
2023-02-09T11:11:47.466Z,98347.25
2023-02-09T11:14:17.207Z,98347.19
2023-02-09T11:16:46.577Z,98341.84
2023-02-09T11:19:31.960Z,98347.38
2023-02-09T11:22:13.135Z,98340.69
2023-02-09T11:25:18.060Z,98350.91
2023-02-09T11:28:27.039Z,98348.00
2023-02-09T11:31:31.184Z,98353.50
2023-02-09T11:34:19.675Z,98342.53
2023-02-09T11:37:02.365Z,98336.59
2023-02-09T11:39:57.514Z,98331.78
2023-02-09T11:42:46.573Z,98331.00
2023-02-09T11:45:28.000Z,98328.97
2023-02-09T11:48:05.716Z,98324.16
2023-02-09T11:50:45.095Z,98329.50
2023-02-09T11:53:36.583Z,98327.28
2023-02-09T11:56:06.029Z,98328.16
2023-02-09T11:58:39.457Z,98332.66
2023-02-09T12:01:33.883Z,98321.16
2023-02-09T12:04:06.073Z,98324.91
2023-02-09T12:06:38.713Z,98322.47
2023-02-09T12:09:17.210Z,98321.78
2023-02-09T12:12:01.475Z,98317.03
2023-02-09T12:14:39.447Z,98314.31
2023-02-09T12:29:41.094Z,98302.44
2023-02-09T12:32:08.097Z,98296.50
2023-02-09T12:34:41.810Z,98302.94
2023-02-09T12:37:16.885Z,98299.09
2023-02-09T12:40:01.882Z,98297.00
2023-02-09T12:42:44.664Z,98287.53
2023-02-09T12:45:34.571Z,98289.09
2023-02-09T12:48:17.621Z,98295.50
2023-02-09T12:50:44.045Z,98294.13
2023-02-09T12:53:22.643Z,98290.84
2023-02-09T12:55:59.212Z,98291.81
2023-02-09T12:58:52.944Z,98289.56
2023-02-09T13:01:21.021Z,98284.84
2023-02-09T13:04:00.863Z,98278.59
2023-02-09T13:06:51.581Z,98284.31
2023-02-09T13:09:28.926Z,98274.63
2023-02-09T13:12:14.628Z,98263.31
2023-02-09T13:14:48.834Z,98272.69
2023-02-09T13:17:39.568Z,98273.66
2023-02-09T13:20:34.025Z,98266.69
2023-02-09T13:23:29.037Z,98266.22
2023-02-09T13:26:02.141Z,98264.53
2023-02-09T13:28:28.747Z,98260.56
2023-02-09T13:30:55.332Z,98256.63
2023-02-09T13:33:35.417Z,98271.72
2023-02-09T13:36:11.124Z,98265.97
2023-02-09T13:38:42.665Z,98258.00
2023-02-09T13:41:24.905Z,98255.09
2023-02-09T13:43:51.511Z,98242.31
2023-02-09T13:46:29.084Z,98240.91
2023-02-09T13:49:10.202Z,98228.78
2023-02-09T13:51:36.624Z,98234.28
2023-02-09T13:54:03.396Z,98230.22
2023-02-09T13:56:31.650Z,98228.03
2023-02-09T13:58:59.688Z,98218.06
2023-02-09T14:01:30.148Z,98223.16
2023-02-09T14:04:10.470Z,98228.81
2023-02-09T14:06:44.633Z,98230.03
2023-02-09T14:09:17.533Z,98231.41
2023-02-09T14:11:53.024Z,98230.84
2023-02-09T14:14:50.741Z,98234.06
2023-02-09T14:17:34.790Z,98246.78
2023-02-09T14:20:03.347Z,98247.97
2023-02-09T14:22:37.730Z,98251.13
2023-02-09T14:25:13.205Z,98254.59
2023-02-09T14:27:40.621Z,98246.03
2023-02-09T14:30:25.955Z,98255.41
2023-02-09T14:32:57.845Z,98259.28
2023-02-09T14:35:30.998Z,98260.72
2023-02-09T14:38:01.172Z,98264.25
2023-02-09T14:40:27.879Z,98259.91
2023-02-09T14:42:58.862Z,98265.06
2023-02-09T14:45:25.381Z,98270.59
2023-02-09T14:47:54.084Z,98270.06
2023-02-09T14:50:23.572Z,98275.31
2023-02-09T14:52:54.505Z,98275.38
2023-02-09T14:55:25.713Z,98273.00
2023-02-09T14:57:52.425Z,98271.47
2023-02-09T15:00:30.373Z,98270.03
2023-02-09T15:02:58.628Z,98265.00
2023-02-09T15:05:26.851Z,98265.13
2023-02-09T15:07:59.016Z,98260.56
2023-02-09T15:11:03.068Z,98267.59
2023-02-09T15:13:30.542Z,98270.84
2023-02-09T15:16:00.047Z,98286.75
2023-02-09T15:18:27.305Z,98283.91
2023-02-09T15:20:54.379Z,98276.97
2023-02-09T15:23:20.941Z,98278.28
2023-02-09T15:25:49.424Z,98274.00
2023-02-09T16:14:23.192Z,98319.97
2023-02-09T16:16:50.679Z,98322.78
2023-02-09T16:19:17.678Z,98332.06
2023-02-09T16:21:51.404Z,98329.09
2023-02-09T16:24:23.858Z,98331.19
2023-02-09T16:26:50.390Z,98331.56
2023-02-09T16:29:16.906Z,98341.41
2023-02-09T16:31:43.385Z,98333.34
2023-02-09T16:34:15.383Z,98348.28
2023-02-09T16:36:42.605Z,98347.09
2023-02-09T16:39:20.238Z,98340.34
2023-02-09T16:41:47.743Z,98338.06
2023-02-09T16:44:19.225Z,98332.03
2023-02-09T16:46:48.383Z,98338.34
2023-02-09T16:49:26.632Z,98335.00
2023-02-09T16:51:57.838Z,98343.09
2023-02-09T16:54:24.393Z,98353.81
2023-02-09T16:56:54.591Z,98350.31
2023-02-09T16:59:21.316Z,98359.34
2023-02-09T17:01:49.205Z,98357.09
2023-02-09T17:04:15.856Z,98359.03
2023-02-09T17:06:42.476Z,98363.09
2023-02-09T17:09:15.514Z,98358.28
2023-02-09T17:11:43.032Z,98362.91
2023-02-09T17:14:09.600Z,98363.38
2023-02-09T17:16:39.222Z,98374.78
2023-02-09T17:19:12.298Z,98379.50
2023-02-09T17:21:40.349Z,98372.91
2023-02-09T17:24:14.193Z,98377.69
2023-02-09T17:26:40.882Z,98368.66
2023-02-09T17:29:11.289Z,98361.16
2023-02-09T17:31:52.360Z,98364.66
2023-02-09T17:34:20.289Z,98348.31
2023-02-09T17:36:46.767Z,98347.59
2023-02-09T17:39:13.747Z,98351.34
2023-02-09T17:41:45.278Z,98343.13
2023-02-09T17:44:31.918Z,98338.69
2023-02-09T17:47:05.975Z,98352.69
2023-02-09T17:49:34.921Z,98351.78
2023-02-09T17:52:02.492Z,98342.25
2023-02-09T17:54:29.061Z,98350.03
2023-02-09T17:56:55.507Z,98355.31
2023-02-09T17:59:21.991Z,98362.41
2023-02-09T18:01:50.242Z,98363.81
2023-02-09T18:04:25.031Z,98362.47
2023-02-09T18:06:51.633Z,98364.47
2023-02-09T18:09:18.137Z,98378.38
2023-02-09T18:11:44.562Z,98376.72
2023-02-09T18:14:15.905Z,98382.63
2023-02-09T18:16:45.172Z,98393.91
2023-02-09T18:19:13.279Z,98396.44
2023-02-09T18:21:52.882Z,98392.38
2023-02-09T18:24:21.401Z,98396.09
2023-02-09T18:26:49.904Z,98398.56
2023-02-09T18:29:17.913Z,98401.03
2023-02-09T18:31:44.522Z,98415.25
2023-02-09T18:34:10.983Z,98416.66
2023-02-09T18:36:39.552Z,98411.44
2023-02-09T18:39:11.089Z,98417.91
2023-02-09T18:41:37.573Z,98421.00
2023-02-09T18:44:04.122Z,98414.50
2023-02-09T18:46:30.740Z,98426.44
2023-02-09T18:48:57.338Z,98431.59
2023-02-09T18:51:24.093Z,98424.53
2023-02-09T18:53:51.270Z,98432.16
2023-02-09T18:56:25.767Z,98443.56
2023-02-09T18:58:52.637Z,98436.91
2023-02-09T19:01:25.216Z,98438.88
2023-02-09T19:03:53.180Z,98440.13
2023-02-09T19:06:20.623Z,98441.13
2023-02-09T19:08:48.771Z,98442.56
2023-02-09T19:11:17.025Z,98451.84
2023-02-09T19:14:03.690Z,98453.00
2023-02-09T19:16:30.413Z,98447.53
2023-02-09T19:18:58.273Z,98448.72
2023-02-09T19:21:24.923Z,98449.94
2023-02-09T19:23:53.970Z,98447.13
2023-02-09T19:26:20.962Z,98445.72
2023-02-09T19:28:48.247Z,98449.59
2023-02-09T19:31:17.275Z,98447.28
2023-02-09T19:33:44.176Z,98438.50
2023-02-09T19:36:11.756Z,98443.81
2023-02-09T19:38:40.262Z,98453.00
2023-02-09T19:41:11.832Z,98451.59
2023-02-09T19:43:39.799Z,98439.28
2023-02-09T19:46:07.392Z,98437.00
2023-02-09T19:48:40.004Z,98425.69
2023-02-09T19:51:15.010Z,98427.66
2023-02-09T19:53:44.676Z,98442.03
2023-02-09T19:56:19.612Z,98439.94
2023-02-09T19:58:50.219Z,98430.56
2023-02-09T20:01:18.012Z,98446.84
2023-02-09T20:03:44.750Z,98440.22
2023-02-09T20:06:14.214Z,98450.03
2023-02-09T20:08:40.900Z,98444.97
2023-02-09T20:11:11.146Z,98455.44
2023-02-09T20:13:38.767Z,98463.09
2023-02-09T20:16:10.471Z,98457.97
2023-02-09T20:18:37.331Z,98461.69
2023-02-09T20:21:10.614Z,98469.53
2023-02-09T20:23:37.275Z,98454.88
2023-02-09T20:26:16.673Z,98447.28
2023-02-09T20:28:44.410Z,98425.41
2023-02-09T20:31:27.924Z,98437.28
2023-02-09T20:33:54.965Z,98441.13
2023-02-09T20:36:23.784Z,98445.66
2023-02-09T20:38:50.977Z,98446.47
2023-02-09T20:41:18.209Z,98441.78
2023-02-09T20:44:03.925Z,98438.09
2023-02-09T20:46:52.144Z,98447.47
2023-02-09T20:49:19.469Z,98443.19
2023-02-09T20:51:46.365Z,98450.00
2023-02-09T20:54:13.575Z,98452.44
2023-02-09T20:56:40.175Z,98454.03
2023-02-09T20:59:07.460Z,98451.03
2023-02-09T21:01:36.117Z,98455.38
2023-02-09T21:04:02.582Z,98456.78
2023-02-09T21:06:29.098Z,98456.75
2023-02-09T21:08:55.643Z,98461.38
2023-02-09T21:11:22.250Z,98452.00
2023-02-09T21:13:51.742Z,98450.50
2023-02-09T21:16:20.287Z,98453.47
2023-02-09T21:18:47.921Z,98465.41
2023-02-09T21:21:17.018Z,98473.13
2023-02-09T21:23:44.917Z,98461.44
2023-02-09T21:26:14.338Z,98470.13
2023-02-09T21:28:41.073Z,98484.50
2023-02-09T21:31:17.082Z,98475.16
2023-02-09T21:33:43.604Z,98478.72
2023-02-09T21:36:10.746Z,98490.56
2023-02-09T21:38:41.649Z,98495.75
2023-02-09T21:41:36.305Z,98489.94
2023-02-09T21:44:03.247Z,98487.09
2023-02-09T21:46:30.050Z,98481.94
2023-02-09T21:48:56.613Z,98484.75
2023-02-09T21:51:24.032Z,98485.78
2023-02-09T21:53:50.554Z,98491.03
2023-02-09T21:56:17.620Z,98501.94
2023-02-09T21:58:44.341Z,98499.13
2023-02-09T22:01:11.201Z,98498.13
2023-02-09T22:03:42.541Z,98503.38
2023-02-09T22:06:10.443Z,98508.50
2023-02-09T22:08:37.145Z,98520.41
2023-02-09T22:11:05.986Z,98514.00
2023-02-09T22:13:33.160Z,98514.06
2023-02-09T22:16:00.736Z,98519.47
2023-02-09T22:18:29.320Z,98507.81
2023-02-09T22:20:56.700Z,98509.78
2023-02-09T22:23:26.979Z,98519.59
2023-02-09T22:26:01.024Z,98521.81
2023-02-09T22:28:28.277Z,98511.25
2023-02-09T22:30:55.534Z,98512.94
2023-02-09T22:33:22.983Z,98511.50
2023-02-09T22:35:49.691Z,98519.53
2023-02-09T22:38:16.161Z,98526.06
2023-02-09T22:40:42.693Z,98529.66
2023-02-09T22:43:09.232Z,98529.59
2023-02-09T22:45:35.947Z,98527.94
2023-02-09T22:48:02.455Z,98533.28
2023-02-09T22:50:28.901Z,98542.13
2023-02-09T22:52:55.350Z,98552.81
2023-02-09T22:55:21.855Z,98545.06
2023-02-09T22:57:48.765Z,98547.25
2023-02-09T23:00:16.026Z,98554.94
2023-02-09T23:02:42.841Z,98545.59
2023-02-09T23:05:09.486Z,98554.72
2023-02-09T23:07:35.912Z,98561.13
2023-02-09T23:10:02.473Z,98554.72
2023-02-09T23:12:29.975Z,98560.09
2023-02-09T23:14:56.437Z,98565.41
2023-02-09T23:17:26.944Z,98556.97
2023-02-09T23:19:53.431Z,98560.41
2023-02-09T23:22:20.191Z,98580.91
2023-02-09T23:24:46.974Z,98579.44
2023-02-09T23:27:13.453Z,98583.06
2023-02-09T23:29:39.897Z,98575.84
2023-02-09T23:32:06.391Z,98576.31
2023-02-09T23:34:33.625Z,98586.78
2023-02-09T23:37:05.844Z,98585.66
2023-02-09T23:39:40.212Z,98588.13
2023-02-09T23:42:06.666Z,98591.50
2023-02-09T23:44:33.752Z,98592.16
2023-02-09T23:47:00.254Z,98589.34
2023-02-09T23:49:26.702Z,98592.00
2023-02-09T23:51:53.158Z,98597.84
2023-02-09T23:54:20.684Z,98594.38
2023-02-09T23:56:49.513Z,98579.66
2023-02-09T23:59:16.207Z,98571.50
